createdAt,value
2022-08-25T00:01:37.746Z,1.77
2022-08-25T00:04:10.790Z,1.60
2022-08-25T00:06:39.634Z,1.52
2022-08-25T00:09:07.319Z,1.70
2022-08-25T00:11:35.078Z,1.80
2022-08-25T00:14:06.462Z,1.95
2022-08-25T00:16:33.756Z,1.80
2022-08-25T00:19:05.263Z,1.73
2022-08-25T00:21:32.325Z,1.88
2022-08-25T00:23:59.734Z,2.10
2022-08-25T00:26:27.598Z,1.85
2022-08-25T00:29:01.109Z,1.50
2022-08-25T00:31:38.473Z,1.73
2022-08-25T00:34:09.567Z,2.13
2022-08-25T00:36:36.243Z,1.88
2022-08-25T00:39:03.755Z,1.80
2022-08-25T00:41:30.211Z,1.85
2022-08-25T00:44:00.878Z,1.67
2022-08-25T00:46:31.592Z,2.10
2022-08-25T00:49:06.070Z,1.70
2022-08-25T00:51:40.781Z,1.90
2022-08-25T00:56:35.301Z,1.67
2022-08-25T00:59:04.242Z,1.90
2022-08-25T01:01:31.139Z,1.90
2022-08-25T01:03:57.679Z,2.22
2022-08-25T01:06:24.729Z,1.85
2022-08-25T01:08:52.250Z,2.10
2022-08-25T01:11:18.735Z,1.67
2022-08-25T01:13:50.130Z,1.80
2022-08-25T01:16:17.290Z,1.75
2022-08-25T01:18:58.088Z,1.80
2022-08-25T01:21:27.130Z,1.40
2022-08-25T01:23:58.188Z,1.73
2022-08-25T01:26:30.566Z,2.00
2022-08-25T01:29:19.666Z,2.08
2022-08-25T01:31:47.018Z,2.22
2022-08-25T01:34:15.700Z,1.80
2022-08-25T01:36:44.037Z,2.05
2022-08-25T01:39:11.544Z,2.00
2022-08-25T01:42:07.098Z,1.75
2022-08-25T01:44:35.933Z,1.80
2022-08-25T01:47:04.571Z,1.92
2022-08-25T01:49:31.040Z,2.00
2022-08-25T01:52:11.309Z,2.42
2022-08-25T01:54:37.855Z,1.90
2022-08-25T01:57:05.203Z,2.10
2022-08-25T01:59:31.610Z,2.03
2022-08-25T02:02:00.134Z,1.90
2022-08-25T02:04:31.938Z,1.83
2022-08-25T02:07:00.495Z,2.13
2022-08-25T02:09:27.016Z,1.90
2022-08-25T02:11:54.027Z,2.65
2022-08-25T02:14:20.494Z,2.30
2022-08-25T02:16:50.811Z,2.10
2022-08-25T02:19:19.123Z,1.88
2022-08-25T02:21:45.675Z,1.92
2022-08-25T02:24:12.815Z,2.30
2022-08-25T02:26:39.626Z,2.17
2022-08-25T02:29:07.419Z,2.50
2022-08-25T02:31:34.233Z,2.20
2022-08-25T02:34:02.023Z,2.40
2022-08-25T02:36:29.890Z,1.95
2022-08-25T02:38:56.435Z,2.30
2022-08-25T02:41:31.134Z,2.03
2022-08-25T02:43:58.682Z,2.33
2022-08-25T02:46:25.280Z,2.15
2022-08-25T02:48:53.225Z,2.88
2022-08-25T02:51:22.018Z,2.25
2022-08-25T02:53:48.497Z,2.38
2022-08-25T02:56:17.377Z,2.38
2022-08-25T02:58:44.386Z,2.35
2022-08-25T03:01:11.998Z,2.10
2022-08-25T03:03:40.407Z,2.40
2022-08-25T03:06:10.255Z,2.42
2022-08-25T03:08:37.184Z,2.33
2022-08-25T03:11:05.422Z,2.28
2022-08-25T03:13:32.456Z,2.25
2022-08-25T03:16:00.594Z,2.60
2022-08-25T03:18:27.687Z,2.47
2022-08-25T03:20:54.880Z,2.70
2022-08-25T03:23:21.808Z,2.38
2022-08-25T03:26:06.912Z,2.55
2022-08-25T03:31:01.280Z,2.70
2022-08-25T03:33:30.280Z,2.58
2022-08-25T03:35:56.962Z,2.40
2022-08-25T03:38:25.355Z,2.55
2022-08-25T03:40:52.672Z,2.40
2022-08-25T03:43:19.849Z,2.38
2022-08-25T03:45:47.708Z,2.45
2022-08-25T03:48:16.150Z,2.55
2022-08-25T03:50:51.527Z,2.80
2022-08-25T03:53:20.031Z,2.47
2022-08-25T03:55:47.193Z,2.45
2022-08-25T03:58:14.643Z,2.50
2022-08-25T04:00:41.209Z,2.40
2022-08-25T04:03:07.707Z,2.63
2022-08-25T04:05:35.283Z,2.40
2022-08-25T04:08:02.079Z,2.88
2022-08-25T04:10:29.509Z,2.70
2022-08-25T04:12:57.025Z,3.00
2022-08-25T04:15:24.884Z,2.80
2022-08-25T04:17:55.697Z,2.60
2022-08-25T04:20:22.174Z,2.47
2022-08-25T04:22:48.629Z,2.67
2022-08-25T04:25:15.120Z,3.03
2022-08-25T04:27:41.964Z,2.80
2022-08-25T04:30:09.062Z,2.60
2022-08-25T04:32:36.655Z,2.83
2022-08-25T04:35:05.172Z,2.80
2022-08-25T04:37:31.609Z,2.65
2022-08-25T04:39:58.162Z,3.22
2022-08-25T04:42:26.357Z,2.60
2022-08-25T04:44:52.857Z,2.55
2022-08-25T04:47:19.301Z,3.13
2022-08-25T04:49:45.847Z,2.88
2022-08-25T04:52:14.344Z,2.70
2022-08-25T04:54:41.435Z,3.03
2022-08-25T04:57:08.127Z,3.25
2022-08-25T04:59:34.853Z,3.72
2022-08-25T05:02:03.455Z,3.30
2022-08-25T05:04:31.748Z,3.03
2022-08-25T05:06:58.918Z,3.42
2022-08-25T05:09:26.165Z,3.35
2022-08-25T05:11:53.748Z,3.45
2022-08-25T05:14:25.603Z,3.50
2022-08-25T05:16:53.834Z,3.45
2022-08-25T05:19:20.293Z,3.53
2022-08-25T05:21:47.092Z,3.67
2022-08-25T05:24:13.574Z,3.17
2022-08-25T05:26:40.021Z,3.80
2022-08-25T05:29:07.691Z,3.50
2022-08-25T05:31:38.470Z,3.60
2022-08-25T05:34:08.730Z,3.85
2022-08-25T05:36:35.465Z,4.35
2022-08-25T05:39:02.182Z,3.80
2022-08-25T05:41:30.837Z,4.85
2022-08-25T05:43:57.962Z,4.38
2022-08-25T05:46:25.215Z,3.97
2022-08-25T05:48:52.535Z,4.68
2022-08-25T05:51:20.013Z,3.80
2022-08-25T05:53:49.049Z,4.10
2022-08-25T05:56:16.662Z,3.78
2022-08-25T05:58:44.297Z,3.70
2022-08-25T06:01:38.678Z,4.03
2022-08-25T06:04:06.193Z,3.88
2022-08-25T06:06:32.750Z,4.43
2022-08-25T06:08:59.183Z,3.72
2022-08-25T06:11:25.789Z,4.35
2022-08-25T06:13:52.193Z,4.00
2022-08-25T06:16:18.768Z,3.72
2022-08-25T06:18:45.802Z,4.03
2022-08-25T06:21:14.144Z,3.67
2022-08-25T06:23:41.673Z,4.20
2022-08-25T06:26:13.130Z,4.18
2022-08-25T06:28:47.957Z,3.97
2022-08-25T06:31:14.760Z,4.10
2022-08-25T06:33:41.247Z,3.30
2022-08-25T06:36:08.688Z,3.90
2022-08-25T06:38:35.860Z,3.90
2022-08-25T06:41:07.383Z,3.30
2022-08-25T06:43:34.704Z,3.20
2022-08-25T06:46:18.163Z,3.17
2022-08-25T06:48:44.709Z,3.30
2022-08-25T06:51:14.443Z,3.40
2022-08-25T06:53:41.779Z,3.20
2022-08-25T06:56:08.592Z,3.47
2022-08-25T06:58:35.899Z,3.53
2022-08-25T07:01:19.742Z,3.22
2022-08-25T07:03:47.700Z,3.20
2022-08-25T07:06:17.200Z,2.78
2022-08-25T07:08:46.244Z,3.05
2022-08-25T07:11:16.631Z,2.90
2022-08-25T07:13:45.505Z,3.10
2022-08-25T07:16:12.781Z,2.67
2022-08-25T07:18:39.246Z,2.92
2022-08-25T07:21:08.824Z,3.45
2022-08-25T07:23:36.664Z,3.33
2022-08-25T07:29:11.043Z,3.45
2022-08-25T07:31:38.255Z,3.10
2022-08-25T07:34:25.442Z,2.90
2022-08-25T07:36:52.374Z,2.80
2022-08-25T07:39:21.918Z,4.28
2022-08-25T07:41:51.967Z,2.85
2022-08-25T07:44:20.944Z,3.15
2022-08-25T07:46:48.418Z,2.88
2022-08-25T07:49:17.429Z,3.05
2022-08-25T07:52:05.497Z,2.97
2022-08-25T07:54:34.787Z,2.92
2022-08-25T07:57:03.722Z,3.08
2022-08-25T07:59:31.016Z,2.85
2022-08-25T08:02:05.564Z,3.05
2022-08-25T08:04:32.040Z,3.00
2022-08-25T08:06:58.496Z,2.70
2022-08-25T08:09:25.114Z,3.00
2022-08-25T08:11:54.338Z,3.20
2022-08-25T08:14:21.049Z,2.72
2022-08-25T08:16:47.521Z,2.95
2022-08-25T08:19:14.068Z,3.03
2022-08-25T08:21:40.780Z,2.80
2022-08-25T08:24:14.879Z,2.80
2022-08-25T08:26:59.063Z,2.97
2022-08-25T08:29:26.302Z,3.25
2022-08-25T08:31:53.337Z,2.55
2022-08-25T08:34:19.872Z,2.80
2022-08-25T08:36:51.512Z,2.83
2022-08-25T08:39:18.017Z,3.03
2022-08-25T08:42:11.450Z,2.78
2022-08-25T08:44:44.476Z,2.70
2022-08-25T08:47:45.265Z,3.72
2022-08-25T08:50:33.193Z,3.05
2022-08-25T08:53:33.988Z,3.10
2022-08-25T08:56:11.757Z,2.97
2022-08-25T08:58:55.811Z,2.65
2022-08-25T09:01:33.588Z,2.72
2022-08-25T09:04:09.496Z,2.65
2022-08-25T09:06:45.365Z,2.88
2022-08-25T09:09:14.567Z,3.05
2022-08-25T09:11:44.002Z,2.80
2022-08-25T09:14:13.600Z,3.03
2022-08-25T09:17:06.115Z,2.88
2022-08-25T09:19:49.239Z,2.80
2022-08-25T09:22:36.942Z,2.95
2022-08-25T09:25:39.586Z,2.70
2022-08-25T09:28:16.067Z,2.95
2022-08-25T09:30:54.709Z,2.70
2022-08-25T09:33:24.219Z,2.45
2022-08-25T09:35:53.702Z,2.25
2022-08-25T09:38:20.726Z,2.60
2022-08-25T09:40:54.269Z,2.72
2022-08-25T09:43:41.850Z,2.70
2022-08-25T09:46:08.280Z,2.72
2022-08-25T09:48:44.967Z,2.60
2022-08-25T09:51:20.796Z,2.60
2022-08-25T09:53:58.054Z,3.60
2022-08-25T09:56:27.958Z,2.78
2022-08-25T09:59:02.435Z,2.42
2022-08-25T10:01:29.578Z,2.42
2022-08-25T10:04:04.882Z,2.78
2022-08-25T10:06:42.692Z,2.67
2022-08-25T10:09:25.389Z,2.85
2022-08-25T10:11:52.638Z,2.70
2022-08-25T10:14:35.664Z,2.88
2022-08-25T10:17:29.538Z,2.63
2022-08-25T10:20:11.866Z,2.10
2022-08-25T10:22:41.276Z,2.20
2022-08-25T10:25:11.323Z,2.30
2022-08-25T10:28:15.845Z,2.35
2022-08-25T10:31:15.761Z,2.45
2022-08-25T10:33:55.451Z,2.30
2022-08-25T10:36:47.045Z,2.33
2022-08-25T10:39:36.882Z,2.17
2022-08-25T10:42:34.920Z,2.17
2022-08-25T10:45:42.256Z,1.85
2022-08-25T10:48:33.233Z,2.40
2022-08-25T10:51:31.845Z,2.72
2022-08-25T10:54:18.958Z,2.60
2022-08-25T10:57:07.153Z,2.00
2022-08-25T10:59:46.923Z,2.10
2022-08-25T11:02:46.790Z,1.98
2022-08-25T11:05:40.401Z,2.20
2022-08-25T11:08:11.754Z,2.30
2022-08-25T11:10:44.712Z,2.22
2022-08-25T11:13:39.211Z,2.70
2022-08-25T11:16:28.507Z,2.22
2022-08-25T11:19:06.792Z,2.38
2022-08-25T11:21:47.268Z,2.05
2022-08-25T11:24:27.656Z,2.03
2022-08-25T11:26:57.472Z,2.20
2022-08-25T11:29:31.233Z,2.30
2022-08-25T11:31:59.949Z,2.03
2022-08-25T11:34:32.333Z,1.90
2022-08-25T11:37:07.782Z,2.35
2022-08-25T11:39:37.723Z,1.83
2022-08-25T11:42:13.273Z,2.33
2022-08-25T11:44:53.716Z,1.80
2022-08-25T11:47:51.039Z,2.13
2022-08-25T11:50:30.040Z,2.10
2022-08-25T11:53:02.653Z,2.38
2022-08-25T11:55:48.241Z,2.00
2022-08-25T11:58:30.626Z,2.30
2022-08-25T12:01:00.526Z,2.00
2022-08-25T12:03:33.977Z,2.20
2022-08-25T12:06:30.094Z,2.25
2022-08-25T12:09:05.477Z,2.08
2022-08-25T12:11:53.673Z,2.20
2022-08-25T12:14:28.185Z,2.40
2022-08-25T12:16:54.956Z,2.00
2022-08-25T12:19:30.650Z,1.85
2022-08-25T12:22:19.130Z,1.92
2022-08-25T12:25:04.506Z,2.40
2022-08-25T12:27:33.388Z,1.90
2022-08-25T12:30:21.522Z,2.15
2022-08-25T12:33:07.214Z,2.45
2022-08-25T12:35:55.150Z,2.17
2022-08-25T12:38:42.471Z,2.08
2022-08-25T12:41:19.118Z,1.98
2022-08-25T12:43:48.146Z,2.13
2022-08-25T12:46:25.672Z,2.20
2022-08-25T12:49:30.038Z,1.95
2022-08-25T12:52:18.150Z,2.05
2022-08-25T12:54:59.491Z,2.05
2022-08-25T12:57:40.456Z,2.13
2022-08-25T13:00:18.485Z,2.25
2022-08-25T13:03:10.076Z,2.38
2022-08-25T13:05:42.942Z,2.10
2022-08-25T13:08:37.091Z,2.10
2022-08-25T13:11:12.335Z,2.10
2022-08-25T13:14:04.836Z,2.05
2022-08-25T13:16:33.491Z,2.13
2022-08-25T13:19:04.969Z,2.20
2022-08-25T13:21:39.956Z,2.13
2022-08-25T13:24:19.769Z,2.33
2022-08-25T13:26:56.482Z,2.30
2022-08-25T13:29:29.726Z,2.33
2022-08-25T13:32:09.238Z,2.40
2022-08-25T13:34:38.817Z,2.03
2022-08-25T13:37:29.607Z,2.00
2022-08-25T13:40:12.353Z,2.10
2022-08-25T13:42:45.125Z,2.20
2022-08-25T13:45:22.166Z,2.10
2022-08-25T13:47:55.893Z,2.10
2022-08-25T13:50:26.433Z,2.08
2022-08-25T13:53:00.702Z,2.38
2022-08-25T13:55:38.302Z,2.33
2022-08-25T13:58:24.663Z,2.13
2022-08-25T14:01:47.783Z,2.63
2022-08-25T14:04:27.213Z,2.60
2022-08-25T14:07:12.641Z,2.42
2022-08-25T14:10:01.493Z,2.13
2022-08-25T14:12:33.648Z,2.47
2022-08-25T14:15:23.734Z,2.38
2022-08-25T14:18:01.306Z,2.50
2022-08-25T14:20:31.148Z,1.80
2022-08-25T14:23:00.408Z,2.25
2022-08-25T14:25:30.494Z,1.98
2022-08-25T14:28:10.925Z,2.20
2022-08-25T14:30:46.127Z,1.97
2022-08-25T14:33:14.339Z,2.53
2022-08-25T14:35:45.453Z,2.10
2022-08-25T14:38:14.222Z,2.00
2022-08-25T14:40:40.787Z,2.10
2022-08-25T14:43:09.606Z,2.30
2022-08-25T14:45:40.830Z,2.10
2022-08-25T14:48:10.819Z,2.30
2022-08-25T14:50:41.225Z,2.10
2022-08-25T14:53:10.281Z,2.30
2022-08-25T14:55:37.038Z,2.58
2022-08-25T14:58:03.529Z,2.25
2022-08-25T15:00:37.132Z,2.35
2022-08-25T15:03:04.125Z,2.33
2022-08-25T15:05:31.877Z,2.33
2022-08-25T15:08:16.844Z,2.45
2022-08-25T15:10:43.561Z,2.63
2022-08-25T15:13:10.853Z,2.70
2022-08-25T15:15:52.403Z,2.60
2022-08-25T15:18:20.547Z,2.55
2022-08-25T15:20:46.968Z,2.50
2022-08-25T15:23:16.537Z,2.45
2022-08-25T15:25:45.329Z,2.22
2022-08-25T15:28:12.823Z,2.55
2022-08-25T15:30:45.880Z,2.58
2022-08-25T15:33:13.623Z,2.42
2022-08-25T15:35:40.639Z,2.53
2022-08-25T15:38:07.995Z,2.50
2022-08-25T15:40:37.507Z,2.40
2022-08-25T15:43:04.917Z,2.42
2022-08-25T15:45:32.020Z,2.50
2022-08-25T15:47:59.394Z,2.70
2022-08-25T15:50:26.887Z,2.17
2022-08-25T15:52:53.825Z,2.30
2022-08-25T15:55:20.939Z,2.50
2022-08-25T15:57:47.932Z,2.33
2022-08-25T16:00:17.031Z,2.20
2022-08-25T16:02:45.491Z,2.20
2022-08-25T16:05:13.689Z,2.33
2022-08-25T16:07:42.779Z,2.35
2022-08-25T16:10:09.943Z,2.38
2022-08-25T16:12:38.003Z,2.90
2022-08-25T16:15:05.685Z,2.25
2022-08-25T16:17:32.319Z,2.53
2022-08-25T16:19:58.779Z,2.53
2022-08-25T16:22:25.645Z,2.47
2022-08-25T16:24:52.501Z,2.22
2022-08-25T16:27:19.907Z,2.35
2022-08-25T16:29:47.220Z,2.53
2022-08-25T16:32:14.642Z,2.40
2022-08-25T16:34:42.555Z,2.40
2022-08-25T16:37:09.164Z,2.70
2022-08-25T16:39:36.897Z,2.90
2022-08-25T16:42:06.503Z,2.28
2022-08-25T16:44:34.359Z,2.40
2022-08-25T16:47:01.337Z,2.50
2022-08-25T16:49:27.887Z,2.33
2022-08-25T16:51:57.254Z,2.25
2022-08-25T16:54:43.331Z,2.50
2022-08-25T16:57:09.786Z,2.53
2022-08-25T16:59:36.336Z,2.40
2022-08-25T17:02:03.924Z,2.72
2022-08-25T17:04:32.163Z,2.60
2022-08-25T17:06:59.222Z,2.40
2022-08-25T17:09:25.727Z,2.38
2022-08-25T17:11:56.579Z,2.60
2022-08-25T17:14:23.162Z,2.50
2022-08-25T17:16:54.555Z,2.40
2022-08-25T17:19:21.320Z,2.45
2022-08-25T17:21:50.180Z,2.30
2022-08-25T17:24:17.160Z,2.70
2022-08-25T17:26:46.341Z,2.35
2022-08-25T17:29:13.236Z,2.65
2022-08-25T17:31:40.264Z,2.50
2022-08-25T17:34:09.441Z,2.42
2022-08-25T17:36:36.217Z,2.80
2022-08-25T17:39:03.189Z,2.95
2022-08-25T17:41:30.068Z,2.80
2022-08-25T17:43:57.193Z,3.00
2022-08-25T17:46:24.076Z,2.75
2022-08-25T17:48:51.135Z,3.13
2022-08-25T17:51:17.654Z,2.97
2022-08-25T17:53:44.586Z,3.05
2022-08-25T17:56:14.048Z,3.17
2022-08-25T17:58:41.945Z,2.50
2022-08-25T18:01:16.286Z,3.15
2022-08-25T18:03:43.520Z,2.80
2022-08-25T18:06:15.123Z,2.78
2022-08-25T18:08:44.175Z,2.90
2022-08-25T18:11:11.512Z,2.60
2022-08-25T18:13:38.731Z,2.92
2022-08-25T18:16:05.585Z,3.20
2022-08-25T18:18:34.379Z,2.58
2022-08-25T18:21:02.635Z,2.95
2022-08-25T18:23:29.871Z,3.33
2022-08-25T18:26:00.921Z,3.40
2022-08-25T18:28:28.784Z,3.50
2022-08-25T18:30:55.907Z,3.20
2022-08-25T18:33:23.331Z,3.08
2022-08-25T18:35:49.881Z,3.05
2022-08-25T18:38:36.286Z,3.17
2022-08-25T18:41:06.474Z,3.33
2022-08-25T18:43:34.902Z,3.33
2022-08-25T18:46:04.720Z,2.92
2022-08-25T18:48:32.135Z,3.17
2022-08-25T18:51:00.617Z,3.00
2022-08-25T18:53:30.631Z,3.40
2022-08-25T18:56:04.957Z,3.10
2022-08-25T18:58:31.588Z,2.65
2022-08-25T19:00:58.124Z,3.55
2022-08-25T19:03:24.640Z,3.17
2022-08-25T19:05:57.187Z,3.38
2022-08-25T19:08:25.020Z,3.30
2022-08-25T19:10:53.259Z,3.00
2022-08-25T19:13:22.539Z,3.40
2022-08-25T19:15:51.255Z,3.42
2022-08-25T19:18:26.220Z,3.20
2022-08-25T19:20:56.274Z,2.88
2022-08-25T19:23:22.752Z,3.22
2022-08-25T19:25:49.236Z,3.63
2022-08-25T19:28:16.719Z,3.78
2022-08-25T19:30:50.445Z,3.15
2022-08-25T19:33:42.521Z,4.05
2022-08-25T19:36:06.299Z,3.40
2022-08-25T19:38:36.074Z,3.95
2022-08-25T19:41:10.595Z,3.42
2022-08-25T19:43:55.198Z,3.50
2022-08-25T19:46:23.684Z,3.65
2022-08-25T19:48:50.554Z,3.75
2022-08-25T19:51:19.443Z,4.63
2022-08-25T19:53:54.337Z,3.75
2022-08-25T19:56:22.328Z,3.72
2022-08-25T19:58:48.886Z,4.15
2022-08-25T20:01:18.226Z,3.90
2022-08-25T20:03:45.323Z,3.42
2022-08-25T20:06:12.300Z,3.30
2022-08-25T20:08:43.135Z,3.90
2022-08-25T20:11:09.591Z,3.67
2022-08-25T20:13:36.273Z,3.78
2022-08-25T20:16:04.139Z,3.72
2022-08-25T20:18:32.346Z,3.20
2022-08-25T20:20:58.879Z,3.63
2022-08-25T20:23:44.110Z,3.60
2022-08-25T20:26:10.542Z,3.70
2022-08-25T20:28:37.077Z,3.63
2022-08-25T20:31:04.109Z,3.97
2022-08-25T20:33:32.786Z,4.38
2022-08-25T20:35:59.203Z,3.85
2022-08-25T20:38:26.995Z,3.80
2022-08-25T20:40:53.483Z,4.28
2022-08-25T20:43:20.875Z,4.45
2022-08-25T20:45:47.761Z,4.10
2022-08-25T20:48:14.263Z,4.05
2022-08-25T20:50:40.816Z,4.28
2022-08-25T20:53:10.158Z,4.07
2022-08-25T20:55:42.493Z,4.80
2022-08-25T20:58:10.311Z,4.88
2022-08-25T21:00:37.038Z,4.35
2022-08-25T21:03:03.568Z,4.05
2022-08-25T21:05:30.090Z,3.85
2022-08-25T21:07:56.553Z,4.32
2022-08-25T21:10:23.483Z,4.28
2022-08-25T21:12:53.286Z,4.30
2022-08-25T21:15:20.489Z,4.80
2022-08-25T21:17:53.142Z,4.47
2022-08-25T21:20:25.571Z,4.40
2022-08-25T21:22:53.244Z,4.18
2022-08-25T21:25:20.345Z,4.03
2022-08-25T21:27:47.934Z,4.00
2022-08-25T21:30:15.950Z,5.10
2022-08-25T21:32:53.593Z,4.30
2022-08-25T21:35:21.303Z,4.00
2022-08-25T21:37:53.039Z,4.35
2022-08-25T21:40:21.768Z,4.40
2022-08-25T21:42:48.800Z,4.60
2022-08-25T21:45:15.458Z,3.88
2022-08-25T21:47:42.589Z,4.20
2022-08-25T21:50:11.924Z,4.40
2022-08-25T21:52:38.898Z,4.07
2022-08-25T21:55:08.092Z,4.95
2022-08-25T21:57:42.326Z,4.22
2022-08-25T22:00:11.575Z,4.63
2022-08-25T22:02:38.506Z,4.68
2022-08-25T22:05:09.367Z,4.78
2022-08-25T22:07:42.081Z,4.57
2022-08-25T22:10:12.805Z,4.93
2022-08-25T22:12:43.890Z,4.72
2022-08-25T22:15:13.632Z,4.43
2022-08-25T22:17:40.594Z,4.53
2022-08-25T22:20:08.910Z,4.22
2022-08-25T22:22:35.661Z,4.57
2022-08-25T22:25:03.013Z,4.70
2022-08-25T22:27:30.313Z,5.28
2022-08-25T22:29:58.022Z,4.85
2022-08-25T22:32:24.505Z,4.75
2022-08-25T22:34:51.030Z,5.20
2022-08-25T22:37:18.108Z,4.57
2022-08-25T22:39:48.061Z,4.68
2022-08-25T22:42:14.684Z,4.68
2022-08-25T22:44:42.455Z,4.43
2022-08-25T22:47:10.578Z,5.00
2022-08-25T22:49:39.319Z,4.80
2022-08-25T22:52:07.092Z,4.97
2022-08-25T22:54:36.750Z,5.15
2022-08-25T22:57:06.689Z,4.68
2022-08-25T22:59:34.068Z,4.40
2022-08-25T23:02:00.713Z,5.00
2022-08-25T23:04:27.487Z,4.63
2022-08-25T23:06:53.957Z,5.05
2022-08-25T23:09:21.261Z,4.82
2022-08-25T23:11:47.952Z,5.15
2022-08-25T23:14:17.935Z,4.75
2022-08-25T23:16:44.520Z,4.68
2022-08-25T23:19:14.002Z,4.90
2022-08-25T23:22:00.456Z,5.43
2022-08-25T23:24:29.682Z,5.07
2022-08-25T23:26:59.344Z,5.13
2022-08-25T23:29:27.583Z,4.82
2022-08-25T23:31:54.335Z,5.45
2022-08-25T23:34:21.513Z,4.95
2022-08-25T23:36:48.715Z,5.15
2022-08-25T23:39:15.170Z,5.13
2022-08-25T23:41:41.930Z,4.95
2022-08-25T23:44:11.575Z,4.90
2022-08-25T23:46:39.074Z,4.72
2022-08-25T23:49:08.138Z,5.10
2022-08-25T23:51:37.121Z,5.30
2022-08-25T23:54:09.559Z,5.10
2022-08-25T23:56:44.506Z,5.30
2022-08-25T23:59:17.869Z,5.50
